Time;durP1;ratioP1;P1;durP2;ratioP2;P2;SDS_P1;SDS_P2;PMS_P1;PMS_P2;Temp;Humidity;BMP_temperature;BMP_pressure;BME280_temperature;BME280_humidity;BME280_pressure;Samples;Min_cycle;Max_cycle;Signal;HPM_P1;HPM_P2
2022/11/15 00:01:44;;;;;;;2.88;1.70;;;10.70;68.00;;;;;;5035485;28;20013;-77
2022/11/15 00:04:10;;;;;;;5.20;1.58;;;10.70;68.30;;;;;;5033801;28;20057;-76
2022/11/15 00:06:36;;;;;;;3.00;1.52;;;10.60;68.30;;;;;;5041825;28;20025;-77
2022/11/15 00:09:02;;;;;;;3.15;1.50;;;10.60;68.50;;;;;;5037004;28;20018;-77
2022/11/15 00:11:28;;;;;;;2.67;1.75;;;10.50;68.40;;;;;;5035943;28;20009;-79
2022/11/15 00:13:58;;;;;;;2.80;1.75;;;10.50;68.60;;;;;;5041764;28;20022;-76
2022/11/15 00:16:24;;;;;;;3.50;1.58;;;10.50;69.00;;;;;;5033469;28;20038;-77
2022/11/15 00:18:50;;;;;;;4.25;1.55;;;10.40;69.00;;;;;;5033393;28;20406;-77
2022/11/15 00:21:17;;;;;;;3.53;1.30;;;10.40;68.90;;;;;;5033456;28;20112;-77
2022/11/15 00:23:42;;;;;;;5.20;1.48;;;10.40;68.90;;;;;;5034049;28;20033;-77
2022/11/15 00:26:12;;;;;;;2.45;1.35;;;10.40;69.20;;;;;;5016952;28;20132;-77
2022/11/15 00:28:38;;;;;;;1.75;1.17;;;10.40;69.30;;;;;;5034678;28;20490;-76
2022/11/15 00:31:08;;;;;;;2.92;1.30;;;10.30;69.50;;;;;;5035324;28;20025;-77
2022/11/15 00:33:34;;;;;;;3.92;1.23;;;10.30;69.50;;;;;;5036174;28;20025;-77
2022/11/15 00:36:03;;;;;;;3.72;1.60;;;10.30;69.50;;;;;;5036526;28;20444;-77
2022/11/15 00:38:33;;;;;;;3.03;1.30;;;10.30;69.60;;;;;;5036762;28;20031;-77
2022/11/15 00:41:00;;;;;;;2.58;1.30;;;10.30;69.60;;;;;;5053954;28;20040;-77
2022/11/15 00:43:26;;;;;;;2.08;1.10;;;10.30;69.70;;;;;;5036526;28;20029;-78
2022/11/15 00:45:51;;;;;;;3.92;1.52;;;10.20;69.70;;;;;;5036053;28;20021;-80
2022/11/15 00:48:17;;;;;;;3.05;1.45;;;10.30;69.70;;;;;;5035888;28;20029;-77
2022/11/15 00:50:42;;;;;;;6.78;1.88;;;10.20;69.60;;;;;;5035998;28;20025;-77
2022/11/15 00:53:09;;;;;;;2.53;1.33;;;10.20;69.80;;;;;;5053968;28;20029;-78
2022/11/15 00:55:34;;;;;;;2.75;1.60;;;10.20;69.90;;;;;;5016418;28;20030;-78
2022/11/15 00:58:00;;;;;;;3.38;1.30;;;10.10;70.10;;;;;;5050190;28;20021;-79
2022/11/15 01:00:27;;;;;;;3.08;1.27;;;10.10;70.40;;;;;;5035894;28;20477;-78
2022/11/15 01:02:52;;;;;;;4.28;1.25;;;10.10;70.20;;;;;;5035794;28;20056;-77
2022/11/15 01:05:18;;;;;;;2.53;1.58;;;10.00;70.30;;;;;;5036042;28;20049;-76
2022/11/15 01:07:44;;;;;;;4.47;1.58;;;10.00;70.40;;;;;;5035733;28;20021;-78
2022/11/15 01:10:10;;;;;;;3.10;1.67;;;10.00;70.70;;;;;;5036301;28;20051;-77
2022/11/15 01:12:37;;;;;;;6.15;1.63;;;10.00;70.80;;;;;;5053606;28;20017;-77
2022/11/15 01:15:04;;;;;;;5.03;1.35;;;9.90;70.70;;;;;;5035880;28;20032;-77
2022/11/15 01:17:30;;;;;;;5.03;1.35;;;9.90;70.70;;;;;;4999731;28;20033;-77
2022/11/15 01:19:56;;;;;;;3.22;1.60;;;9.90;70.50;;;;;;5049041;28;20072;-77
2022/11/15 01:22:22;;;;;;;2.42;1.30;;;9.80;70.60;;;;;;5035505;28;20542;-77
2022/11/15 01:24:52;;;;;;;5.30;1.80;;;9.80;70.50;;;;;;5049986;28;20431;-89
2022/11/15 01:27:18;;;;;;;3.58;1.35;;;9.80;70.60;;;;;;5053567;28;20040;-77
2022/11/15 01:29:45;;;;;;;5.20;1.45;;;9.80;70.50;;;;;;5015912;28;20053;-77
2022/11/15 01:32:10;;;;;;;6.20;1.77;;;9.80;70.50;;;;;;5035493;28;20056;-77
2022/11/15 01:34:39;;;;;;;4.88;1.50;;;9.80;70.50;;;;;;5018857;28;20061;-77
2022/11/15 01:37:07;;;;;;;6.43;1.50;;;9.80;70.90;;;;;;5035129;28;20036;-77
2022/11/15 01:39:34;;;;;;;4.22;1.48;;;9.70;71.00;;;;;;5035282;28;20037;-77
2022/11/15 01:42:01;;;;;;;3.78;1.55;;;9.70;71.20;;;;;;5035610;28;20021;-77
2022/11/15 01:44:52;;;;;;;1.65;1.10;;;9.70;71.30;;;;;;5018834;28;20025;-77
2022/11/15 01:47:38;;;;;;;3.53;1.30;;;9.60;71.30;;;;;;5035264;28;20512;-77
2022/11/15 01:50:08;;;;;;;6.25;1.65;;;9.60;71.60;;;;;;5035250;28;20393;-77
2022/11/15 01:52:35;;;;;;;4.55;1.67;;;9.60;71.50;;;;;;5035222;28;20029;-77
2022/11/15 01:55:18;;;;;;;4.50;1.35;;;9.60;71.80;;;;;;5015447;28;20026;-76
2022/11/15 01:57:46;;;;;;;4.10;1.52;;;9.50;72.00;;;;;;5049276;28;20028;-77
2022/11/15 02:00:12;;;;;;;3.63;1.70;;;9.50;72.10;;;;;;5035300;28;20094;-75
2022/11/15 02:02:39;;;;;;;4.10;1.30;;;9.40;72.00;;;;;;5035138;28;20056;-78
2022/11/15 02:05:07;;;;;;;3.55;1.55;;;9.40;72.10;;;;;;5015569;28;20087;-77
2022/11/15 02:07:34;;;;;;;2.65;1.13;;;9.40;72.40;;;;;;5018507;28;20029;-76
2022/11/15 02:10:10;;;;;;;2.90;1.58;;;9.40;72.30;;;;;;5035084;28;20025;-76
2022/11/15 02:12:37;;;;;;;4.10;1.35;;;9.30;72.50;;;;;;5035078;28;20075;-76
2022/11/15 02:15:06;;;;;;;3.80;1.63;;;9.30;72.60;;;;;;5036821;28;20078;-93
2022/11/15 02:17:34;;;;;;;1.98;1.35;;;9.30;72.50;;;;;;5037278;28;20381;-84
2022/11/15 02:20:32;;;;;;;2.28;1.33;;;9.30;72.60;;;;;;5054220;28;20033;-89
2022/11/15 02:23:19;;;;;;;3.17;1.42;;;9.20;72.70;;;;;;4993959;28;20041;-94
2022/11/15 02:26:07;;;;;;;3.13;1.42;;;9.20;72.80;;;;;;5037187;28;20028;-94
2022/11/15 02:29:03;;;;;;;2.95;1.70;;;9.20;72.70;;;;;;5055481;28;20025;-94
2022/11/15 02:31:52;;;;;;;2.45;1.30;;;9.20;72.70;;;;;;5055817;28;20037;-92
2022/11/15 02:34:34;;;;;;;2.20;1.40;;;9.20;72.70;;;;;;5033516;28;20057;-93
2022/11/15 02:37:11;;;;;;;3.72;1.58;;;9.20;72.70;;;;;;5037049;28;20079;-93
2022/11/15 02:39:51;;;;;;;4.28;1.70;;;9.20;72.70;;;;;;5036472;28;20033;-89
2022/11/15 02:45:50;;;;;;;2.47;1.30;;;9.30;72.60;;;;;;5056749;28;20536;-91
2022/11/15 02:48:17;;;;;;;3.55;1.33;;;9.30;72.40;;;;;;5037780;28;20486;-93
2022/11/15 02:50:43;;;;;;;2.05;1.13;;;9.30;72.30;;;;;;5016680;28;20114;-92
2022/11/15 02:53:10;;;;;;;2.38;1.55;;;9.30;72.30;;;;;;5036196;28;20028;-83
2022/11/15 02:55:46;;;;;;;2.63;1.30;;;9.30;72.30;;;;;;5035633;28;20125;-83
2022/11/15 02:58:11;;;;;;;3.63;1.60;;;9.30;72.30;;;;;;5039204;28;20067;-80
2022/11/15 03:01:04;;;;;;;1.92;1.30;;;9.20;72.40;;;;;;5057859;28;20025;-86
2022/11/15 03:03:51;;;;;;;3.58;1.75;;;9.20;72.50;;;;;;5039663;28;20090;-81
2022/11/15 03:06:35;;;;;;;4.15;1.25;;;9.30;72.70;;;;;;5056448;28;20477;-88
2022/11/15 03:09:11;;;;;;;3.97;1.80;;;9.20;72.50;;;;;;5040228;28;20052;-80
2022/11/15 03:11:44;;;;;;;5.03;1.73;;;9.20;72.70;;;;;;5040652;28;20424;-86
2022/11/15 03:14:23;;;;;;;2.72;1.30;;;9.20;72.80;;;;;;5039943;28;20024;-84
2022/11/15 03:17:20;;;;;;;2.60;1.45;;;9.20;72.90;;;;;;5042214;28;20060;-90
2022/11/15 03:19:55;;;;;;;2.78;1.00;;;9.20;72.90;;;;;;5041767;28;20041;-78
2022/11/15 03:22:26;;;;;;;3.30;1.63;;;9.30;72.80;;;;;;5059171;28;20021;-75
2022/11/15 03:24:59;;;;;;;3.42;1.55;;;9.30;72.40;;;;;;5043816;28;20037;-76
2022/11/15 03:27:31;;;;;;;2.88;1.17;;;9.40;72.30;;;;;;5037801;28;20454;-75
2022/11/15 03:30:03;;;;;;;2.28;1.55;;;9.30;72.00;;;;;;5037748;28;20111;-76
2022/11/15 03:32:34;;;;;;;3.03;1.30;;;9.30;71.90;;;;;;5022567;28;20049;-77
2022/11/15 03:35:07;;;;;;;2.83;1.65;;;9.40;71.80;;;;;;5037787;28;20492;-76
2022/11/15 03:37:40;;;;;;;3.22;1.67;;;9.40;72.00;;;;;;5055622;28;20477;-78
2022/11/15 03:40:06;;;;;;;4.95;2.35;;;9.40;71.90;;;;;;5037513;28;20508;-75
2022/11/15 03:43:10;;;;;;;7.10;2.53;;;9.30;72.30;;;;;;5017380;28;20363;-75
2022/11/15 03:45:54;;;;;;;5.50;2.63;;;9.20;72.50;;;;;;5043539;28;20025;-75
2022/11/15 03:48:33;;;;;;;3.15;2.17;;;9.10;73.10;;;;;;5037435;28;20111;-76
2022/11/15 03:51:00;;;;;;;5.55;1.65;;;9.10;73.40;;;;;;5037372;28;20036;-76
2022/11/15 03:53:28;;;;;;;5.30;1.98;;;9.10;73.50;;;;;;5037595;28;20025;-77
2022/11/15 03:55:54;;;;;;;5.70;2.35;;;9.10;73.60;;;;;;5055093;28;20032;-77
2022/11/15 03:58:19;;;;;;;4.97;2.20;;;9.10;74.00;;;;;;5037531;28;20025;-76
2022/11/15 04:00:45;;;;;;;4.28;2.38;;;9.10;73.80;;;;;;5054140;28;20032;-78
2022/11/15 04:03:10;;;;;;;4.53;2.10;;;9.10;73.70;;;;;;5037033;28;20025;-78
2022/11/15 04:05:36;;;;;;;4.32;2.20;;;9.10;73.80;;;;;;5036949;28;20394;-75
2022/11/15 04:08:01;;;;;;;4.65;1.88;;;9.10;73.80;;;;;;5035925;28;20075;-76
2022/11/15 04:10:27;;;;;;;3.75;2.15;;;9.10;73.80;;;;;;5036881;28;20150;-76
2022/11/15 04:12:53;;;;;;;4.75;2.60;;;9.10;74.00;;;;;;5036799;28;20079;-76
2022/11/15 04:15:22;;;;;;;3.08;1.90;;;9.10;74.10;;;;;;5036825;28;20027;-75
2022/11/15 04:17:54;;;;;;;4.65;2.10;;;9.10;74.00;;;;;;5037124;28;20120;-76
2022/11/15 04:26:05;;;;;;;6.82;2.10;;;9.00;74.30;;;;;;5054786;28;20082;-75
2022/11/15 04:28:30;;;;;;;5.60;2.35;;;9.00;74.20;;;;;;5054419;28;20047;-76
2022/11/15 04:30:56;;;;;;;3.60;2.00;;;9.00;74.20;;;;;;5036404;28;20517;-76
2022/11/15 04:33:22;;;;;;;4.25;2.22;;;9.00;75.20;;;;;;5053070;28;20048;-75
2022/11/15 04:37:11;;;;;;;2.97;1.75;;;8.90;74.60;;;;;;5016742;28;20072;-76
2022/11/15 04:38:33;;;;;;;;;;;8.90;74.90;;;;;;5054441;28;20029;-76
2022/11/15 04:40:59;;;;;;;4.03;2.50;;;8.90;75.30;;;;;;5054397;28;19978;-77
2022/11/15 04:43:26;;;;;;;2.65;1.83;;;8.90;75.40;;;;;;5036130;28;20032;-76
2022/11/15 04:45:51;;;;;;;4.70;2.25;;;8.90;75.30;;;;;;5036437;28;20379;-75
2022/11/15 04:48:22;;;;;;;7.70;2.33;;;8.90;75.30;;;;;;5036328;28;20036;-77
2022/11/15 04:50:48;;;;;;;4.93;2.10;;;8.90;75.30;;;;;;5054328;28;20021;-77
2022/11/15 04:53:15;;;;;;;5.97;2.42;;;9.00;75.30;;;;;;5032307;28;20029;-76
2022/11/15 04:55:45;;;;;;;4.25;2.22;;;9.00;75.60;;;;;;5035754;28;20135;-77
2022/11/15 04:58:10;;;;;;;3.42;1.83;;;9.00;75.30;;;;;;5036407;28;20021;-76
2022/11/15 05:00:36;;;;;;;2.42;2.03;;;9.00;75.20;;;;;;5019884;28;20044;-77
2022/11/15 05:05:46;;;;;;;5.57;2.58;;;9.00;75.50;;;;;;5049484;28;20041;-76
2022/11/15 05:08:13;;;;;;;2.60;2.15;;;9.00;75.60;;;;;;5034207;28;20033;-81
2022/11/15 05:10:39;;;;;;;3.38;1.73;;;9.00;75.50;;;;;;5057181;28;20033;-80
2022/11/15 05:13:04;;;;;;;5.13;2.20;;;9.00;75.50;;;;;;5046403;28;20353;-93
2022/11/15 05:15:31;;;;;;;2.97;1.73;;;8.90;75.70;;;;;;5057144;28;20430;-91
2022/11/15 05:18:00;;;;;;;4.65;2.75;;;8.90;75.70;;;;;;5037727;28;20029;-94
2022/11/15 05:20:26;;;;;;;3.28;1.67;;;8.90;75.90;;;;;;5038535;28;20505;-92
2022/11/15 05:22:55;;;;;;;2.70;1.55;;;8.90;76.00;;;;;;5057726;28;20056;-89
2022/11/15 05:25:22;;;;;;;4.45;1.77;;;8.90;76.00;;;;;;5040023;28;20032;-92
2022/11/15 05:27:48;;;;;;;4.95;2.15;;;8.90;76.00;;;;;;5056891;28;20057;-82
2022/11/15 05:30:16;;;;;;;4.65;2.00;;;8.90;76.00;;;;;;5038409;28;20074;-87
2022/11/15 05:32:42;;;;;;;3.25;2.28;;;8.90;76.00;;;;;;5037828;28;20072;-91
2022/11/15 05:35:14;;;;;;;4.10;2.10;;;9.00;76.00;;;;;;5037518;28;20118;-85
2022/11/15 05:37:40;;;;;;;5.30;1.90;;;9.00;76.10;;;;;;5036940;28;20119;-77
2022/11/15 05:40:06;;;;;;;5.97;2.47;;;8.90;76.00;;;;;;5036766;28;20128;-81
2022/11/15 05:42:32;;;;;;;4.95;2.50;;;8.90;75.90;;;;;;5035908;28;20373;-80
2022/11/15 05:45:01;;;;;;;5.63;2.50;;;8.90;75.90;;;;;;5037030;28;20021;-78
2022/11/15 05:47:30;;;;;;;5.32;2.47;;;8.90;75.90;;;;;;5054023;28;20025;-83
2022/11/15 05:49:56;;;;;;;7.20;2.40;;;8.90;75.90;;;;;;5037154;28;20362;-86
2022/11/15 05:52:27;;;;;;;4.53;2.10;;;8.90;75.80;;;;;;5054801;28;20033;-82
2022/11/15 05:54:54;;;;;;;6.10;2.35;;;8.80;75.90;;;;;;5035733;28;20029;-79
2022/11/15 05:57:21;;;;;;;5.18;1.85;;;8.80;75.90;;;;;;5053832;28;20580;-80
2022/11/15 05:59:47;;;;;;;6.75;2.08;;;8.80;75.90;;;;;;5053448;28;20124;-78
2022/11/15 06:02:15;;;;;;;5.38;1.92;;;8.80;75.90;;;;;;5035673;28;20481;-78
2022/11/15 06:04:42;;;;;;;4.70;1.80;;;8.80;76.00;;;;;;5035862;28;20108;-86
2022/11/15 06:07:14;;;;;;;3.63;2.10;;;8.80;76.10;;;;;;5053874;28;20017;-80
2022/11/15 06:09:39;;;;;;;4.03;2.17;;;8.70;76.60;;;;;;5049051;28;20037;-84
2022/11/15 06:12:05;;;;;;;7.03;2.15;;;8.70;76.80;;;;;;5036819;28;20084;-78
2022/11/15 06:14:31;;;;;;;4.55;1.95;;;8.70;76.80;;;;;;5035233;28;20036;-76
2022/11/15 06:16:56;;;;;;;4.22;2.40;;;8.80;76.40;;;;;;5035688;28;20055;-77
2022/11/15 06:19:22;;;;;;;6.00;2.40;;;8.80;76.20;;;;;;5048739;28;20127;-76
2022/11/15 06:21:49;;;;;;;6.72;2.17;;;8.80;76.00;;;;;;5052519;28;20036;-76
2022/11/15 06:24:16;;;;;;;5.18;2.22;;;8.80;75.90;;;;;;5034490;28;20026;-77
2022/11/15 06:26:43;;;;;;;5.22;2.50;;;8.90;76.00;;;;;;5052428;28;20544;-77
2022/11/15 06:29:09;;;;;;;5.00;2.05;;;8.90;75.90;;;;;;5015821;28;20033;-77
2022/11/15 06:31:35;;;;;;;8.05;2.92;;;8.80;75.70;;;;;;5031701;28;20047;-77
2022/11/15 06:34:03;;;;;;;8.70;2.50;;;8.90;75.70;;;;;;5018247;28;20036;-76
2022/11/15 06:36:33;;;;;;;4.07;2.00;;;8.90;76.00;;;;;;5035001;28;20121;-78
2022/11/15 06:39:03;;;;;;;8.88;2.30;;;8.80;76.00;;;;;;5019675;28;20033;-78
2022/11/15 06:41:30;;;;;;;7.00;2.47;;;8.90;76.20;;;;;;5038535;28;20025;-78
2022/11/15 06:43:58;;;;;;;4.63;1.95;;;8.90;76.40;;;;;;5038165;28;20052;-77
2022/11/15 06:46:24;;;;;;;5.15;3.38;;;8.90;76.30;;;;;;5038289;28;20025;-76
2022/11/15 06:48:53;;;;;;;5.20;3.03;;;9.00;75.70;;;;;;5038384;28;20060;-77
2022/11/15 06:51:19;;;;;;;3.65;2.35;;;9.00;75.60;;;;;;5022116;28;20120;-77
2022/11/15 06:53:45;;;;;;;5.25;2.72;;;9.00;75.60;;;;;;5021695;28;20060;-76
2022/11/15 06:56:11;;;;;;;4.53;2.70;;;9.10;75.50;;;;;;5038376;28;20053;-76
2022/11/15 06:58:37;;;;;;;7.35;2.58;;;9.00;75.50;;;;;;5038242;28;20056;-77
2022/11/15 07:01:05;;;;;;;5.60;2.90;;;9.00;75.60;;;;;;5038214;28;20029;-75
2022/11/15 07:03:31;;;;;;;5.05;2.42;;;9.00;75.60;;;;;;5056205;28;20081;-76
2022/11/15 07:05:57;;;;;;;7.53;2.78;;;9.00;75.70;;;;;;5038526;28;20430;-77
2022/11/15 07:08:31;;;;;;;4.15;2.38;;;9.00;76.00;;;;;;5039264;28;20385;-78
2022/11/15 07:11:06;;;;;;;4.05;2.60;;;9.10;75.90;;;;;;5055298;28;20025;-78
2022/11/15 07:13:38;;;;;;;6.18;3.08;;;9.10;75.80;;;;;;5022481;28;20032;-80
2022/11/15 07:16:10;;;;;;;5.20;2.08;;;9.20;75.50;;;;;;5022484;28;20085;-80
2022/11/15 07:18:41;;;;;;;8.88;2.78;;;9.30;75.30;;;;;;5022413;28;20033;-78
2022/11/15 07:21:10;;;;;;;7.15;2.13;;;9.40;75.10;;;;;;5022107;28;20029;-78
2022/11/15 07:23:40;;;;;;;5.45;2.45;;;9.60;75.00;;;;;;5038440;28;20386;-79
2022/11/15 07:26:13;;;;;;;4.13;2.30;;;9.60;74.30;;;;;;5038646;28;20123;-79
2022/11/15 07:28:39;;;;;;;8.02;2.45;;;9.70;74.10;;;;;;5037909;28;20040;-78
2022/11/15 07:31:07;;;;;;;4.85;2.78;;;9.80;73.70;;;;;;5050480;28;20116;-77
2022/11/15 07:33:34;;;;;;;4.28;3.00;;;9.90;73.50;;;;;;5037448;28;20505;-76
2022/11/15 07:36:05;;;;;;;5.55;2.70;;;9.90;73.20;;;;;;5037505;28;20481;-75
2022/11/15 07:38:34;;;;;;;7.15;2.38;;;9.90;73.30;;;;;;5038817;28;20021;-83
2022/11/15 07:41:02;;;;;;;3.65;2.05;;;10.00;73.10;;;;;;5037826;28;20017;-77
2022/11/15 07:43:29;;;;;;;5.70;2.65;;;10.00;72.80;;;;;;5054070;28;20033;-82
2022/11/15 07:46:23;;;;;;;50.15;6.07;;;10.10;73.00;;;;;;5055416;28;20405;-78
2022/11/15 07:48:49;;;;;;;13.35;3.65;;;10.20;80.50;;;;;;5038501;28;20029;-80
2022/11/15 07:51:16;;;;;;;10.63;3.13;;;10.40;77.10;;;;;;5021882;28;20120;-80
2022/11/15 07:53:43;;;;;;;10.25;2.72;;;10.60;76.60;;;;;;5038743;28;20102;-78
2022/11/15 07:56:09;;;;;;;8.05;2.88;;;10.80;75.30;;;;;;5038056;28;20082;-78
2022/11/15 07:58:39;;;;;;;6.53;2.78;;;11.00;71.70;;;;;;5055409;28;20036;-79
2022/11/15 08:01:25;;;;;;;11.30;3.60;;;11.20;70.70;;;;;;5037112;28;20082;-79
2022/11/15 08:03:50;;;;;;;6.43;2.70;;;11.30;69.80;;;;;;5053905;28;20028;-79
2022/11/15 08:06:25;;;;;;;7.82;2.30;;;11.40;69.60;;;;;;5055219;28;20025;-80
2022/11/15 08:08:51;;;;;;;7.25;2.78;;;11.40;68.70;;;;;;5037041;28;20032;-79
2022/11/15 08:11:17;;;;;;;6.05;2.25;;;11.50;69.40;;;;;;5036837;28;20442;-79
2022/11/15 08:13:42;;;;;;;4.68;2.30;;;11.80;68.80;;;;;;5036707;28;20170;-78
2022/11/15 08:16:08;;;;;;;7.72;2.60;;;11.90;68.00;;;;;;5020139;28;20135;-78
2022/11/15 08:18:56;;;;;;;7.65;2.30;;;12.00;67.40;;;;;;5037926;28;20035;-79
2022/11/15 08:21:23;;;;;;;5.35;2.13;;;12.10;68.00;;;;;;5032263;28;20048;-80
2022/11/15 08:23:49;;;;;;;3.20;2.08;;;12.20;67.50;;;;;;5056155;28;20033;-78
2022/11/15 08:26:20;;;;;;;5.15;2.15;;;12.40;66.80;;;;;;5021067;28;20482;-78
2022/11/15 08:28:46;;;;;;;3.30;2.33;;;12.50;66.40;;;;;;5036710;28;20021;-78
2022/11/15 08:31:18;;;;;;;5.93;2.28;;;12.70;66.00;;;;;;5036977;28;20366;-78
2022/11/15 08:33:45;;;;;;;3.42;2.30;;;12.90;65.10;;;;;;5011994;28;20053;-79
2022/11/15 08:36:15;;;;;;;8.13;2.85;;;13.00;64.00;;;;;;5034585;28;20475;-78
2022/11/15 08:38:43;;;;;;;5.07;2.58;;;13.00;63.70;;;;;;5000852;28;20068;-78
2022/11/15 08:41:27;;;;;;;3.55;1.80;;;13.00;64.10;;;;;;5033043;28;20033;-78
2022/11/15 08:44:07;;;;;;;2.97;2.10;;;12.90;64.70;;;;;;5034229;28;20424;-77
2022/11/15 08:46:32;;;;;;;5.60;1.77;;;13.00;63.80;;;;;;5033497;28;20029;-76
2022/11/15 08:48:59;;;;;;;3.03;1.90;;;13.00;63.50;;;;;;5033196;28;20028;-75
2022/11/15 08:51:25;;;;;;;7.10;2.00;;;12.80;63.50;;;;;;5017820;28;20029;-76
2022/11/15 08:53:57;;;;;;;6.72;2.60;;;12.70;64.40;;;;;;4984437;28;20486;-76
2022/11/15 08:56:23;;;;;;;5.03;2.95;;;12.50;65.50;;;;;;5035408;28;20485;-85
2022/11/15 08:58:50;;;;;;;5.75;2.90;;;12.40;66.00;;;;;;5018553;28;20034;-77
2022/11/15 09:01:18;;;;;;;9.90;3.25;;;12.30;66.50;;;;;;5033885;28;20124;-76
2022/11/15 09:03:44;;;;;;;6.30;3.20;;;12.20;66.80;;;;;;5000661;28;20029;-79
2022/11/15 09:06:09;;;;;;;5.63;2.72;;;12.20;66.90;;;;;;5015753;28;20084;-77
2022/11/15 09:08:35;;;;;;;5.22;2.85;;;12.10;67.40;;;;;;5015962;28;20044;-78
2022/11/15 09:11:08;;;;;;;6.65;3.58;;;12.10;67.80;;;;;;5016289;28;20112;-76
2022/11/15 09:13:34;;;;;;;9.85;3.58;;;12.10;68.10;;;;;;5013259;28;20037;-77
2022/11/15 09:16:01;;;;;;;4.85;2.80;;;12.10;68.10;;;;;;5033478;28;20029;-78
2022/11/15 09:18:27;;;;;;;8.95;3.75;;;12.10;67.90;;;;;;5015962;28;20017;-77
2022/11/15 09:21:00;;;;;;;6.68;3.50;;;12.20;68.00;;;;;;5016249;28;20064;-76
2022/11/15 09:23:27;;;;;;;6.88;3.47;;;12.30;68.00;;;;;;5033705;28;20063;-76
2022/11/15 09:26:00;;;;;;;4.10;2.60;;;12.40;67.80;;;;;;5015726;28;20021;-75
2022/11/15 09:28:27;;;;;;;4.10;2.42;;;12.50;66.90;;;;;;5016474;28;20030;-77
2022/11/15 09:30:59;;;;;;;2.72;1.85;;;12.60;66.60;;;;;;5020624;28;20018;-78
2022/11/15 09:33:25;;;;;;;5.97;2.15;;;12.70;65.20;;;;;;5019649;28;20105;-77
2022/11/15 09:35:52;;;;;;;2.40;2.05;;;12.80;64.80;;;;;;5035433;28;20509;-91
2022/11/15 09:38:19;;;;;;;3.72;1.75;;;12.90;65.10;;;;;;5036730;28;20071;-90
2022/11/15 09:40:57;;;;;;;4.60;1.80;;;12.90;64.90;;;;;;5042098;28;20036;-78
2022/11/15 09:43:42;;;;;;;5.05;2.47;;;13.10;65.40;;;;;;5021452;28;20087;-76
2022/11/15 09:46:36;;;;;;;5.22;2.22;;;13.10;64.50;;;;;;5029871;28;20104;-77
2022/11/15 09:49:04;;;;;;;5.80;2.72;;;13.20;64.50;;;;;;5031537;28;20450;-76
2022/11/15 09:51:31;;;;;;;4.95;2.63;;;13.20;64.50;;;;;;5036009;28;20029;-88
2022/11/15 09:54:30;;;;;;;5.10;2.25;;;13.30;64.90;;;;;;5034700;28;20026;-77
2022/11/15 09:57:30;;;;;;;6.40;2.55;;;13.40;64.90;;;;;;5031481;28;20041;-78
2022/11/15 10:00:09;;;;;;;4.53;2.80;;;13.50;65.10;;;;;;5031243;28;20034;-76
2022/11/15 10:02:41;;;;;;;5.53;3.10;;;13.50;65.20;;;;;;5034473;28;20018;-81
2022/11/15 10:05:12;;;;;;;9.10;3.25;;;13.70;64.90;;;;;;5023711;28;20115;-78
2022/11/15 10:07:45;;;;;;;7.00;2.88;;;13.80;64.60;;;;;;5026145;28;20021;-78
2022/11/15 10:10:38;;;;;;;6.55;2.58;;;13.90;64.20;;;;;;5011215;28;20025;-78
2022/11/15 10:13:04;;;;;;;5.68;3.15;;;14.00;63.70;;;;;;5012320;28;20483;-78
2022/11/15 10:15:31;;;;;;;5.28;2.50;;;14.00;63.40;;;;;;4979157;28;20056;-77
2022/11/15 10:18:15;;;;;;;4.65;2.92;;;14.00;63.30;;;;;;5011262;28;20505;-76
2022/11/15 10:21:13;;;;;;;5.18;2.10;;;14.00;63.50;;;;;;5011521;28;20110;-76
2022/11/15 10:23:39;;;;;;;8.57;2.90;;;14.10;63.40;;;;;;5008034;28;20033;-76
2022/11/15 10:26:11;;;;;;;4.32;2.70;;;14.00;63.50;;;;;;4994623;28;20018;-76
2022/11/15 10:28:36;;;;;;;6.85;3.17;;;14.10;63.80;;;;;;5011097;28;20083;-77
2022/11/15 10:31:20;;;;;;;6.05;3.03;;;14.10;64.00;;;;;;5011038;28;20018;-78
2022/11/15 10:33:47;;;;;;;10.30;4.88;;;14.00;63.90;;;;;;4994688;28;20073;-76
2022/11/15 10:36:13;;;;;;;18.13;7.13;;;14.00;64.10;;;;;;5010649;28;20044;-76
2022/11/15 10:38:56;;;;;;;12.30;6.10;;;13.90;64.00;;;;;;5011582;28;20470;-77
2022/11/15 10:41:31;;;;;;;13.13;5.95;;;14.00;64.20;;;;;;4995008;28;20045;-79
2022/11/15 10:44:06;;;;;;;;;;;13.90;64.40;;;;;;5011293;28;20022;-76
2022/11/15 10:46:37;;;;;;;11.05;4.78;;;14.00;64.50;;;;;;5011189;28;19906;-77
2022/11/15 10:49:28;;;;;;;12.07;5.35;;;14.00;64.20;;;;;;4995224;28;20307;-77
2022/11/15 10:52:17;;;;;;;10.73;4.70;;;13.90;64.10;;;;;;4994959;28;20069;-77
2022/11/15 10:54:49;;;;;;;11.95;4.70;;;14.00;64.50;;;;;;5010893;28;20057;-77
2022/11/15 10:57:24;;;;;;;6.97;3.72;;;14.00;64.60;;;;;;5005653;28;20022;-76
2022/11/15 11:00:08;;;;;;;5.72;3.38;;;14.00;64.80;;;;;;4989692;28;20056;-79
2022/11/15 11:02:59;;;;;;;7.03;3.45;;;14.00;65.00;;;;;;4993693;28;20034;-76
2022/11/15 11:05:37;;;;;;;5.30;2.80;;;14.10;64.90;;;;;;4994684;28;20026;-77
2022/11/15 11:08:14;;;;;;;5.13;3.30;;;14.10;64.70;;;;;;5011620;28;20060;-76
2022/11/15 11:10:54;;;;;;;5.80;3.60;;;14.10;64.80;;;;;;5010649;28;20038;-80
2022/11/15 11:13:28;;;;;;;7.63;3.95;;;14.20;65.00;;;;;;5013127;28;20030;-76
2022/11/15 11:16:06;;;;;;;7.95;4.38;;;14.10;65.40;;;;;;4994432;28;20026;-77
2022/11/15 11:18:49;;;;;;;8.02;3.88;;;14.10;65.60;;;;;;5014501;28;20471;-77
2022/11/15 11:21:26;;;;;;;7.47;3.97;;;14.10;65.70;;;;;;4998954;28;20057;-76
2022/11/15 11:24:07;;;;;;;5.68;3.38;;;14.10;65.90;;;;;;4981648;28;20064;-77
2022/11/15 11:26:59;;;;;;;5.40;3.15;;;14.10;66.00;;;;;;5018505;28;20080;-78
2022/11/15 11:29:50;;;;;;;6.72;3.08;;;14.10;66.60;;;;;;4979843;28;20101;-78
2022/11/15 11:32:50;;;;;;;7.03;3.70;;;14.10;66.20;;;;;;4967658;28;20416;-78
2022/11/15 11:35:32;;;;;;;9.48;5.25;;;14.10;65.70;;;;;;4938460;29;20408;-77
2022/11/15 11:38:21;;;;;;;10.52;5.47;;;14.20;65.50;;;;;;4954369;29;20431;-77
2022/11/15 11:41:06;;;;;;;8.80;5.43;;;14.10;65.50;;;;;;4954358;29;20508;-77
2022/11/15 11:44:03;;;;;;;10.85;5.05;;;14.10;65.60;;;;;;4954255;29;20046;-78
2022/11/15 11:46:53;;;;;;;9.85;4.63;;;14.20;65.60;;;;;;4954478;29;20460;-80
2022/11/15 11:49:30;;;;;;;12.15;4.20;;;14.20;65.50;;;;;;4954191;29;20456;-78
2022/11/15 11:52:19;;;;;;;9.63;4.60;;;14.20;65.60;;;;;;4937702;29;20428;-77
2022/11/15 11:55:00;;;;;;;8.10;4.28;;;14.30;65.50;;;;;;4938179;29;20031;-78
2022/11/15 11:57:51;;;;;;;5.45;3.30;;;14.30;65.40;;;;;;4938076;29;20031;-77
2022/11/15 12:00:25;;;;;;;7.72;3.53;;;14.40;65.00;;;;;;4971933;28;20042;-78
2022/11/15 12:03:13;;;;;;;7.15;3.60;;;14.30;65.10;;;;;;4993306;28;20026;-79
2022/11/15 12:06:11;;;;;;;11.48;3.85;;;14.40;65.20;;;;;;4994460;28;20070;-78
2022/11/15 12:09:17;;;;;;;7.20;3.83;;;14.40;64.60;;;;;;4975835;28;20062;-78
2022/11/15 12:12:02;;;;;;;7.63;3.30;;;14.30;64.30;;;;;;5001163;23;20492;-76
2022/11/15 12:14:48;;;;;;;6.07;1.67;;;14.30;63.30;;;;;;4997283;28;20030;-81
2022/11/15 12:17:15;;;;;;;2.30;1.20;;;14.20;62.10;;;;;;5014574;28;20025;-78
2022/11/15 12:19:42;;;;;;;4.22;1.90;;;14.10;63.40;;;;;;4996654;28;20321;-77
2022/11/15 12:22:26;;;;;;;3.67;1.52;;;14.10;63.10;;;;;;5014314;28;20018;-78
2022/11/15 12:28:29;;;;;;;2.75;0.80;;;14.00;60.20;;;;;;5109064;23;20052;-79
2022/11/15 12:31:02;;;;;;;1.35;0.70;;;13.90;59.30;;;;;;5033468;28;20109;-78
2022/11/15 12:33:41;;;;;;;2.50;0.73;;;13.80;59.80;;;;;;5033980;28;20024;-78
2022/11/15 12:36:20;;;;;;;2.22;0.40;;;13.90;60.10;;;;;;5034184;28;20029;-78
2022/11/15 12:38:52;;;;;;;1.48;0.70;;;13.80;59.80;;;;;;5034117;28;20386;-78
2022/11/15 12:41:19;;;;;;;0.55;0.30;;;13.80;60.10;;;;;;5034093;28;20021;-78
2022/11/15 12:43:46;;;;;;;1.60;0.68;;;13.70;59.80;;;;;;5034103;28;20033;-77
2022/11/15 12:46:24;;;;;;;2.30;0.50;;;13.80;60.10;;;;;;5034053;28;20445;-78
2022/11/15 12:48:53;;;;;;;1.35;0.57;;;13.80;60.00;;;;;;5033897;28;20528;-77
2022/11/15 12:51:42;;;;;;;0.93;0.77;;;13.80;60.60;;;;;;5033544;28;20022;-78
2022/11/15 12:54:23;;;;;;;0.90;0.73;;;13.80;61.30;;;;;;5033971;28;20030;-79
2022/11/15 12:57:07;;;;;;;0.65;0.43;;;13.80;61.50;;;;;;5039403;22;20088;-77
2022/11/15 12:59:55;;;;;;;5.47;0.63;;;13.80;61.50;;;;;;5015970;28;20080;-77
2022/11/15 13:02:27;;;;;;;0.60;0.40;;;13.70;60.10;;;;;;5033514;28;20037;-78
2022/11/15 13:04:55;;;;;;;1.73;0.60;;;13.80;60.60;;;;;;5033513;28;20068;-77
2022/11/15 13:07:57;;;;;;;0.60;0.50;;;13.80;60.20;;;;;;5017811;28;20055;-82
2022/11/15 13:10:25;;;;;;;0.50;0.50;;;13.90;61.40;;;;;;5034636;28;20072;-83
2022/11/15 13:12:54;;;;;;;2.55;0.65;;;14.00;61.30;;;;;;5019101;28;20522;-82
2022/11/15 13:15:44;;;;;;;2.63;1.38;;;14.10;61.70;;;;;;5039657;28;20053;-81
2022/11/15 13:18:40;;;;;;;2.33;1.25;;;14.20;61.70;;;;;;5031900;28;20048;-84
2022/11/15 13:24:16;;;;;;;1.05;0.60;;;14.40;62.30;;;;;;5010761;28;20075;-77
2022/11/15 13:26:42;;;;;;;3.65;0.88;;;14.30;62.00;;;;;;5010320;28;20442;-81
2022/11/15 13:29:18;;;;;;;1.13;0.60;;;14.30;62.30;;;;;;5033303;28;20116;-78
2022/11/15 13:31:45;;;;;;;0.85;0.80;;;14.30;62.70;;;;;;5033241;28;20021;-80
2022/11/15 13:34:35;;;;;;;1.33;0.88;;;14.20;63.00;;;;;;5033490;28;20030;-77
2022/11/15 13:37:01;;;;;;;2.72;0.93;;;14.10;62.70;;;;;;5025921;28;20033;-82